Latest Coastal Weather Observations for Milingimbi

IDD60701

Issued at 9:25 am CST Friday 19 September 2014 (issued every 10 minutes, with the page automatically refreshed every 10 minutes)

About coastal observations | Map of coastal stations | Coastal observations for NT | Marine services | Other Formats
Station Details ID: 014404 Name: MILINGIMBI AIRPORT Lat: -12.09 Lon: 134.89 Height: 15.0 m
Data from the previous 72 hours. | See also: Recent months at Milingimbi
Date/Time
CST
Temp

°C
Wind Pressure Rain
since 9am
mm
Weather Cloud Vis
km
Sea
Height
m
Swell
Dir
 
Speed
knots
Gust
knots
hPa Trend Height
m
Period
s
Dir
19/09:00am 26.2 SSE 5 7 1015.5 - 0.0 - - - - - - -
19/08:30am 24.7 ESE 6 9 1015.6 - 0.0 - - - - - - -
19/08:00am 23.0 SE 7 10 1015.5 - 0.0 - - - - - - -
19/07:30am 21.6 SE 6 10 1015.2 - 0.0 - - - - - - -
19/07:00am 20.0 SE 6 8 1014.8 - 0.0 - - - - - - -
19/06:30am 18.7 E 1 5 1014.4 - 0.0 - - - - - - -
19/06:00am 18.7 E 1 3 1013.8 - 0.0 - - - - - - -
19/05:30am 19.1 S 1 4 1013.6 - 0.0 - - - - - - -
19/05:00am 18.7 CALM 0 0 1013.3 - 0.0 - - - - - - -
19/04:30am 19.2 CALM 0 1 1013.0 - 0.0 - - - - - - -
19/04:00am 20.0 S 5 7 1012.9 - 0.0 - - - - - - -
19/03:30am 19.3 SE 1 4 1013.2 - 0.0 - - - - - - -
19/03:00am 19.7 SSE 0 0 1013.2 - 0.0 - - - - - - -
19/02:30am 20.7 SSE 2 3 1013.5 - 0.0 - - - - - - -
19/02:00am 21.9 SSE 4 5 1014.0 - 0.0 - - - - - - -
19/01:30am 23.0 SSE 6 8 1014.3 - 0.0 - - - - - - -
19/01:00am 23.4 S 6 7 1014.5 - 0.0 - - - - - - -
19/12:30am 24.1 SE 4 6 1014.6 - 0.0 - - - - - - -
19/12:00am 24.6 ESE 5 7 1014.9 - 0.0 - - - - - - -
 
Date/Time
CST
Temp

°C
Wind Pressure Rain
since 9am
mm
Weather Cloud Vis
km
Sea
Height
m
Swell
Dir
 
Speed
knots
Gust
knots
hPa Trend Height
m
Period
s
Dir
18/11:30pm 24.8 E 6 9 1015.3 - 0.0 - - - - - - -
18/11:00pm 24.4 E 4 6 1015.5 - 0.0 - - - - - - -
18/10:30pm 24.4 E 4 6 1015.4 - 0.0 - - - - - - -
18/10:00pm 24.0 ENE 4 6 1015.4 - 0.0 - - - - - - -
18/09:30pm 23.9 E 3 4 1015.3 - 0.0 - - - - - - -
18/09:00pm 23.9 E 3 4 1014.8 - 0.0 - - - - - - -
18/08:30pm 23.7 NE 2 3 1014.3 - 0.0 - - - - - - -
18/08:00pm 25.2 CALM 0 0 1013.9 - 0.0 - - - - - - -
18/07:30pm 25.7 NNE 3 5 1013.7 - 0.0 - - - - - - -
18/07:00pm 26.2 NE 4 5 1013.3 - 0.0 - - - - - - -
18/06:30pm 27.0 NNE 4 6 1013.1 - 0.0 - - - - - - -
18/06:00pm 27.7 NE 6 8 1012.8 - 0.0 - - - - - - -
18/05:30pm 28.3 NNE 6 11 1012.7 - 0.0 - - - - - - -
18/05:00pm 29.3 NNE 6 8 1012.4 - 0.0 - - - - - - -
18/04:30pm 29.8 N 6 9 1012.1 - 0.0 - - - - - - -
18/04:00pm 29.8 N 6 9 1012.1 - 0.0 - - - - - - -
18/03:30pm 29.9 N 7 10 1012.3 - 0.0 - - - - - - -
18/03:00pm 31.0 N 6 8 1012.6 - 0.0 - - - - - - -
18/02:30pm 31.1 NNE 7 10 1013.2 - 0.0 - - - - - - -
18/02:00pm 30.8 NNE 7 11 1013.7 - 0.0 - - - - - - -
18/01:30pm 31.6 NE 6 11 1014.2 - 0.0 - - - - - - -
18/01:00pm 30.3 ENE 8 11 1014.8 - 0.0 - - - - - - -
18/12:30pm 30.6 E 8 11 1015.2 - 0.0 - - - - - - -
18/12:00pm 29.5 E 9 14 1015.6 - 0.0 - - - - - - -
18/11:30am 28.3 E 7 12 1016.0 - 0.0 - - - - - - -
18/11:00am 28.4 E 7 12 1016.5 - 0.0 - - - - - - -
18/10:30am 27.4 E 9 14 1016.9 - 0.0 - - - - - - -
18/10:00am 26.9 ENE 10 13 1017.1 - 0.0 - - - - - - -
18/09:30am 26.2 E 9 15 1016.9 - 0.0 - - - - - - -
18/09:00am 26.0 ESE 8 13 1016.7 - 0.0 - - - - - - -
18/08:30am 25.0 E 6 9 1016.5 - 0.0 - - - - - - -
18/08:00am 23.4 S 7 9 1015.7 - 0.0 - - - - - - -
18/07:30am 21.5 SSE 5 7 1015.4 - 0.0 - - - - - - -
18/07:00am 19.9 S 3 5 1014.7 - 0.0 - - - - - - -
18/06:30am 19.5 S 4 6 1014.3 - 0.0 - - - - - - -
18/06:00am 19.6 S 4 5 1013.8 - 0.0 - - - - - - -
18/05:30am 19.9 SSW 4 6 1013.5 - 0.0 - - - - - - -
18/05:00am 19.9 CALM 0 2 1013.4 - 0.0 - - - - - - -
18/04:30am 20.3 S 1 3 1013.2 - 0.0 - - - - - - -
18/04:00am 20.7 SSE 1 4 1013.3 - 0.0 - - - - - - -
18/03:30am 21.3 S 3 5 1013.4 - 0.0 - - - - - - -
18/03:00am 23.0 ESE 3 6 1013.3 - 0.0 - - - - - - -
18/02:30am 23.6 E 4 5 1013.6 - 0.0 - - - - - - -
18/02:00am 24.0 E 5 7 1013.8 - 0.0 - - - - - - -
18/01:30am 24.2 E 5 7 1014.2 - 0.0 - - - - - - -
18/01:00am 24.4 E 5 8 1014.4 - 0.0 - - - - - - -
18/12:30am 24.6 E 5 8 1014.6 - 0.0 - - - - - - -
18/12:00am 24.8 E 6 9 1014.5 - 0.0 - - - - - - -
 
Date/Time
CST
Temp

°C
Wind Pressure Rain
since 9am
mm
Weather Cloud Vis
km
Sea
Height
m
Swell
Dir
 
Speed
knots
Gust
knots
hPa Trend Height
m
Period
s
Dir
17/11:30pm 24.8 E 5 9 1014.7 - 0.0 - - - - - - -
17/11:00pm 24.9 ENE 5 7 1014.9 - 0.0 - - - - - - -
17/10:30pm 25.1 E 5 7 1015.1 - 0.0 - - - - - - -
17/10:00pm 25.5 E 5 8 1015.1 - 0.0 - - - - - - -
17/09:30pm 25.8 E 5 8 1015.0 - 0.0 - - - - - - -
17/09:00pm 25.9 ENE 5 7 1014.7 - 0.0 - - - - - - -
17/08:30pm 26.0 ENE 6 10 1014.5 - 0.0 - - - - - - -
17/08:00pm 26.1 ENE 6 9 1014.0 - 0.0 - - - - - - -
17/07:30pm 26.1 NE 4 6 1013.5 - 0.0 - - - - - - -
17/07:00pm 26.4 NE 5 9 1013.1 - 0.0 - - - - - - -
17/06:30pm 26.7 NE 5 8 1012.7 - 0.0 - - - - - - -
17/06:00pm 27.1 NNE 5 9 1012.1 - 0.0 - - - - - - -
17/05:30pm 27.8 NE 8 12 1011.8 - 0.0 - - - - - - -
17/05:00pm 28.6 NE 9 14 1011.5 - 0.0 - - - - - - -
17/04:30pm 28.3 NNE 9 13 1011.4 - 0.0 - - - - - - -
17/04:00pm 28.7 N 9 14 1011.2 - 0.0 - - - - - - -
17/03:30pm 29.0 N 7 13 1011.2 - 0.0 - - - - - - -
17/03:00pm 29.3 N 9 13 1011.3 - 0.0 - - - - - - -
17/02:30pm 30.8 ENE 8 12 1011.8 - 0.0 - - - - - - -
17/02:00pm 30.5 NE 7 13 1012.2 - 0.0 - - - - - - -
17/01:30pm 29.3 ENE 8 14 1012.6 - 0.0 - - - - - - -
17/01:00pm 29.4 ENE 8 13 1013.2 - 0.0 - - - - - - -
17/12:30pm 29.0 ENE 8 12 1013.9 - 0.0 - - - - - - -
17/12:00pm 28.2 NE 8 13 1014.2 - 0.0 - - - - - - -
17/11:30am 27.6 ENE 9 13 1014.5 - 0.0 - - - - - - -
17/11:00am 27.6 ENE 10 17 1015.1 - 0.0 - - - - - - -
17/10:30am 27.0 ENE 11 16 1015.4 - 0.0 - - - - - - -
17/10:00am 27.1 ENE 10 15 1015.4 - 0.0 - - - - - - -
17/09:30am 26.8 E 7 12 1015.2 - 0.0 - - - - - - -
17/09:00am 26.4 E 7 11 1014.6 - 0.0 - - - - - - -
17/08:30am 25.3 E 5 8 1014.4 - 0.0 - - - - - - -
17/08:00am 23.9 SE 5 7 1014.1 - 0.0 - - - - - - -
17/07:30am 22.2 SE 4 5 1013.7 - 0.0 - - - - - - -
17/07:00am 20.6 SE 3 4 1013.1 - 0.0 - - - - - - -
17/06:30am 19.9 SSE 3 4 1012.9 - 0.0 - - - - - - -
17/06:00am 20.2 SSE 2 4 1012.5 - 0.0 - - - - - - -
17/05:30am 20.7 SSE 5 6 1012.2 - 0.0 - - - - - - -
17/05:00am 20.8 SE 3 5 1012.0 - 0.0 - - - - - - -
17/04:30am 20.9 CALM 0 4 1011.9 - 0.0 - - - - - - -
17/04:00am 21.2 SE 2 4 1011.6 - 0.0 - - - - - - -
17/03:30am 21.6 SSE 2 4 1011.6 - 0.0 - - - - - - -
17/03:00am 21.6 CALM 0 0 1011.7 - 0.0 - - - - - - -
17/02:30am 22.1 CALM 0 0 1012.0 - 0.0 - - - - - - -
17/02:00am 22.6 E 3 4 1012.3 - 0.0 - - - - - - -
17/01:30am 22.6 E 1 4 1012.4 - 0.0 - - - - - - -
17/01:00am 23.2 ENE 3 4 1012.6 - 0.0 - - - - - - -
17/12:30am 24.4 E 4 6 1012.8 - 0.0 - - - - - - -
17/12:00am 24.5 E 4 6 1012.9 - 0.0 - - - - - - -
 
Date/Time
CST
Temp

°C
Wind Pressure Rain
since 9am
mm
Weather Cloud Vis
km
Sea
Height
m
Swell
Dir
 
Speed
knots
Gust
knots
hPa Trend Height
m
Period
s
Dir
16/11:30pm 24.6 E 4 7 1013.2 - 0.0 - - - - - - -
16/11:00pm 24.8 E 5 8 1013.3 - 0.0 - - - - - - -
16/10:30pm 25.1 E 5 6 1013.3 - 0.0 - - - - - - -
16/10:00pm 24.9 E 4 7 1013.2 - 0.0 - - - - - - -
16/09:30pm 24.9 E 4 6 1013.1 - 0.0 - - - - - - -
16/09:00pm 25.1 E 4 6 1012.9 - 0.0 - - - - - - -
16/08:30pm 25.3 ENE 4 7 1012.7 - 0.0 - - - - - - -
16/08:00pm 25.4 ENE 5 8 1012.5 - 0.0 - - - - - - -
16/07:30pm 25.7 NE 5 9 1012.0 - 0.0 - - - - - - -
16/07:00pm 25.8 NE 5 7 1011.8 - 0.0 - - - - - - -
16/06:30pm 26.2 NE 4 8 1011.4 - 0.0 - - - - - - -
16/06:00pm 26.8 NNE 6 11 1011.1 - 0.0 - - - - - - -
16/05:30pm 27.5 NNE 6 10 1011.1 - 0.0 - - - - - - -
16/05:00pm 28.2 NNE 7 11 1010.9 - 0.0 - - - - - - -
16/04:30pm 28.0 NNE 8 13 1010.8 - 0.0 - - - - - - -
16/04:00pm 28.4 N 8 14 1010.7 - 0.0 - - - - - - -
16/03:30pm 29.8 NNE 7 13 1010.6 - 0.0 - - - - - - -
16/03:00pm 29.3 NNE 8 14 1010.9 - 0.0 - - - - - - -
16/02:30pm 29.2 NNE 9 15 1011.3 - 0.0 - - - - - - -
16/02:00pm 29.2 NNE 9 17 1011.7 - 0.0 - - - - - - -
16/01:30pm 29.1 NE 9 14 1012.1 - 0.0 - - - - - - -
16/01:00pm 29.9 ENE 9 18 1012.4 - 0.0 - - - - - - -
16/12:30pm 28.6 NNE 9 13 1013.0 - 0.0 - - - - - - -
16/12:00pm 29.1 NE 8 14 1013.2 - 0.0 - - - - - - -
16/11:30am 29.6 ENE 9 16 1013.5 - 0.0 - - - - - - -
16/11:00am 28.6 ENE 8 13 1013.6 - 0.0 - - - - - - -
16/10:30am 28.3 E 8 12 1013.8 - 0.0 - - - - - - -
16/10:00am 28.5 E 7 13 1014.0 - 0.0 - - - - - - -
16/09:30am 28.7 E 6 10 1013.8 - 0.0 - - - - - - -

Other Formats:

Comma delimited format used in spreadsheet applications
http://www.bom.gov.au/fwo/IDD60701/IDD60701.94140.axf

JavaScript Object Notation format (JSON) in row-major order
http://www.bom.gov.au/fwo/IDD60701/IDD60701.94140.json